createdAt,value
2022-08-19T00:03:12.877Z,23.90
2022-08-19T00:19:25.687Z,23.00
2022-08-19T00:22:42.277Z,22.90
2022-08-19T00:25:48.835Z,23.00
2022-08-19T00:29:26.962Z,23.00
2022-08-19T00:51:01.978Z,22.80
2022-08-19T01:03:57.768Z,23.40
2022-08-19T01:07:40.912Z,23.50
2022-08-19T01:16:17.092Z,23.30
2022-08-19T01:20:13.214Z,23.30
2022-08-19T01:23:32.505Z,23.20
2022-08-19T01:27:53.579Z,23.20
2022-08-19T01:31:35.566Z,23.10
2022-08-19T01:42:30.471Z,23.20
2022-08-19T01:51:57.659Z,23.10
2022-08-19T01:55:58.812Z,23.20
2022-08-19T02:07:47.617Z,23.50
2022-08-19T02:16:45.414Z,23.70
2022-08-19T02:29:26.823Z,23.50
2022-08-19T02:37:14.068Z,23.70
2022-08-19T02:48:14.919Z,23.70
2022-08-19T02:50:55.800Z,23.60
2022-08-19T02:53:25.520Z,23.60
2022-08-19T02:55:54.264Z,23.50
2022-08-19T02:58:25.141Z,23.40
2022-08-19T03:00:57.487Z,23.30
2022-08-19T03:03:29.243Z,23.10
2022-08-19T03:06:14.234Z,22.90
2022-08-19T03:08:43.763Z,22.90
2022-08-19T03:11:16.340Z,22.80
2022-08-19T03:13:45.171Z,22.80
2022-08-19T03:16:18.601Z,22.90
2022-08-19T03:18:47.204Z,23.00
2022-08-19T03:21:17.984Z,23.10
2022-08-19T03:23:46.367Z,23.20
2022-08-19T03:26:17.077Z,23.20
2022-08-19T03:28:51.138Z,23.30
2022-08-19T03:31:44.794Z,23.20
2022-08-19T03:34:13.606Z,23.20
2022-08-19T03:36:42.065Z,23.10
2022-08-19T03:39:11.655Z,22.90
2022-08-19T03:41:45.844Z,22.70
2022-08-19T03:44:17.854Z,22.50
2022-08-19T03:46:53.963Z,22.40
2022-08-19T03:49:27.165Z,22.60
2022-08-19T03:51:57.884Z,22.80
2022-08-19T03:54:27.104Z,22.90
2022-08-19T03:56:57.519Z,23.00
2022-08-19T03:59:28.427Z,23.20
2022-08-19T04:01:59.928Z,23.20
2022-08-19T04:04:31.878Z,23.30
2022-08-19T04:07:03.195Z,23.50
2022-08-19T04:09:31.372Z,23.40
2022-08-19T04:12:00.005Z,23.50
2022-08-19T04:14:31.071Z,23.30
2022-08-19T04:17:05.484Z,23.10
2022-08-19T04:19:38.003Z,23.10
2022-08-19T04:22:06.642Z,23.10
2022-08-19T04:24:36.158Z,23.10
2022-08-19T04:27:08.138Z,23.10
2022-08-19T04:29:37.808Z,23.10
2022-08-19T04:32:08.805Z,23.20
2022-08-19T04:35:02.128Z,23.20
2022-08-19T04:37:27.454Z,23.10
2022-08-19T04:40:17.256Z,23.00
2022-08-19T04:42:45.683Z,22.80
2022-08-19T04:45:17.561Z,22.90
2022-08-19T04:47:57.969Z,22.80
2022-08-19T04:50:27.612Z,22.80
2022-08-19T04:52:56.588Z,22.80
2022-08-19T04:55:26.419Z,22.80
2022-08-19T04:57:54.755Z,22.80
2022-08-19T05:00:23.099Z,22.90
2022-08-19T05:02:55.445Z,23.00
2022-08-19T05:05:23.750Z,23.00
2022-08-19T05:07:52.084Z,23.10
2022-08-19T05:10:21.516Z,23.20
2022-08-19T05:12:49.775Z,23.20
2022-08-19T05:15:18.194Z,23.20
2022-08-19T05:18:06.437Z,23.30
2022-08-19T05:20:53.647Z,23.40
2022-08-19T05:23:23.014Z,23.50
2022-08-19T05:25:52.607Z,23.50
2022-08-19T05:28:21.244Z,23.50
2022-08-19T05:30:51.738Z,23.40
2022-08-19T05:33:20.516Z,23.50
2022-08-19T05:35:50.447Z,23.50
2022-08-19T05:38:19.213Z,23.30
2022-08-19T05:40:49.183Z,23.30
2022-08-19T05:43:18.001Z,23.30
2022-08-19T05:45:46.363Z,23.30
2022-08-19T05:48:15.173Z,23.30
2022-08-19T05:50:45.355Z,23.30
2022-08-19T05:53:17.301Z,23.30
2022-08-19T05:55:45.476Z,23.40
2022-08-19T05:58:13.691Z,23.50
2022-08-19T06:00:42.154Z,23.50
2022-08-19T06:03:12.534Z,23.60
2022-08-19T06:05:49.564Z,23.70
2022-08-19T06:08:34.611Z,23.70
2022-08-19T06:11:22.260Z,23.70
2022-08-19T06:13:59.782Z,23.80
2022-08-19T06:16:32.633Z,23.60
2022-08-19T06:19:03.584Z,23.70
2022-08-19T06:21:32.547Z,23.70
2022-08-19T06:24:03.561Z,23.80
2022-08-19T06:26:32.014Z,23.80
2022-08-19T06:29:00.249Z,23.80
2022-08-19T06:31:30.290Z,23.80
2022-08-19T06:33:58.681Z,23.80
2022-08-19T06:36:32.455Z,23.80
2022-08-19T06:39:02.613Z,23.80
2022-08-19T06:41:31.223Z,24.00
2022-08-19T06:43:59.704Z,24.00
2022-08-19T06:46:28.759Z,23.90
2022-08-19T06:48:57.067Z,23.90
2022-08-19T06:51:25.992Z,24.00
2022-08-19T06:54:02.824Z,24.00
2022-08-19T06:56:34.728Z,24.10
2022-08-19T06:59:04.844Z,24.20
2022-08-19T07:01:38.591Z,24.20
2022-08-19T07:04:07.939Z,24.20
2022-08-19T07:06:43.892Z,24.20
2022-08-19T07:09:18.756Z,24.10
2022-08-19T07:11:48.889Z,24.10
2022-08-19T07:14:19.797Z,24.10
2022-08-19T07:16:49.958Z,24.10
2022-08-19T07:19:19.319Z,24.10
2022-08-19T07:21:48.885Z,24.10
2022-08-19T07:24:19.536Z,24.10
2022-08-19T07:26:51.972Z,24.10
2022-08-19T07:29:25.637Z,24.10
2022-08-19T07:32:00.225Z,24.00
2022-08-19T07:34:30.502Z,23.90
2022-08-19T07:36:59.375Z,23.90
2022-08-19T07:39:32.875Z,23.90
2022-08-19T07:42:04.666Z,24.00
2022-08-19T07:44:32.875Z,24.10
2022-08-19T07:47:01.193Z,24.10
2022-08-19T07:49:30.197Z,24.00
2022-08-19T07:52:02.256Z,24.00
2022-08-19T07:54:35.243Z,24.00
2022-08-19T07:57:04.217Z,24.20
2022-08-19T07:59:32.974Z,24.20
2022-08-19T08:02:01.526Z,24.10
2022-08-19T08:04:47.878Z,24.10
2022-08-19T08:07:33.695Z,24.10
2022-08-19T08:10:11.424Z,24.20
2022-08-19T08:12:58.359Z,24.30
2022-08-19T08:15:42.130Z,24.50
2022-08-19T08:18:11.096Z,24.60
2022-08-19T08:20:40.156Z,24.60
2022-08-19T08:23:27.275Z,24.60
2022-08-19T08:26:00.041Z,24.50
2022-08-19T08:28:30.743Z,24.60
2022-08-19T08:31:00.136Z,24.60
2022-08-19T08:33:34.590Z,24.60
2022-08-19T08:36:04.002Z,24.60
2022-08-19T08:38:39.119Z,24.70
2022-08-19T08:41:21.230Z,24.70
2022-08-19T08:43:53.207Z,24.80
2022-08-19T08:46:30.481Z,24.90
2022-08-19T08:49:04.787Z,25.10
2022-08-19T08:54:11.915Z,25.40
2022-08-19T08:56:43.938Z,25.30
2022-08-19T08:59:18.732Z,25.50
2022-08-19T09:01:46.957Z,25.60
2022-08-19T09:04:15.634Z,25.70
2022-08-19T09:06:52.720Z,25.60
2022-08-19T09:09:25.628Z,25.70
2022-08-19T09:12:07.184Z,25.90
2022-08-19T09:14:50.723Z,26.10
2022-08-19T09:17:20.868Z,26.20
2022-08-19T09:19:55.507Z,26.20
2022-08-19T09:22:26.092Z,26.30
2022-08-19T09:24:56.704Z,26.60
2022-08-19T09:27:42.105Z,26.70
2022-08-19T09:30:15.137Z,26.90
2022-08-19T09:32:44.915Z,27.00
2022-08-19T09:35:14.919Z,27.00
2022-08-19T09:37:43.782Z,27.10
2022-08-19T09:40:14.157Z,27.30
2022-08-19T09:42:49.966Z,27.30
2022-08-19T09:45:23.035Z,27.10
2022-08-19T09:47:54.231Z,27.00
2022-08-19T09:50:24.974Z,26.90
2022-08-19T09:52:57.356Z,26.80
2022-08-19T09:55:30.963Z,26.80
2022-08-19T09:58:01.951Z,26.60
2022-08-19T10:00:31.237Z,26.70
2022-08-19T10:02:59.421Z,26.90
2022-08-19T10:05:45.299Z,27.10
2022-08-19T10:08:18.179Z,27.00
2022-08-19T10:10:47.337Z,27.00
2022-08-19T10:13:22.883Z,27.20
2022-08-19T10:15:52.080Z,27.30
2022-08-19T10:18:22.742Z,27.30
2022-08-19T10:20:53.453Z,27.40
2022-08-19T10:23:22.495Z,27.50
2022-08-19T10:25:51.315Z,27.60
2022-08-19T10:28:20.947Z,27.50
2022-08-19T10:30:51.904Z,27.60
2022-08-19T10:33:53.189Z,27.50
2022-08-19T10:36:11.732Z,27.50
2022-08-19T10:38:40.327Z,27.40
2022-08-19T10:41:23.303Z,27.30
2022-08-19T10:43:56.211Z,27.10
2022-08-19T10:46:26.551Z,27.20
2022-08-19T10:48:55.405Z,27.30
2022-08-19T10:51:47.826Z,27.60
2022-08-19T10:54:16.959Z,27.90
2022-08-19T10:56:53.704Z,28.20
2022-08-19T10:59:31.448Z,28.40
2022-08-19T11:02:05.122Z,28.40
2022-08-19T11:04:34.393Z,28.40
2022-08-19T11:07:05.849Z,28.30
2022-08-19T11:09:42.511Z,28.30
2022-08-19T11:12:11.591Z,28.30
2022-08-19T11:14:41.276Z,28.50
2022-08-19T11:17:09.680Z,28.60
2022-08-19T11:19:37.949Z,28.40
2022-08-19T11:22:06.297Z,28.50
2022-08-19T11:24:38.189Z,28.60
2022-08-19T11:45:44.174Z,28.70
2022-08-19T11:58:18.893Z,28.60
2022-08-19T12:30:58.884Z,28.80
2022-08-19T12:34:23.256Z,29.00
2022-08-19T12:42:37.460Z,28.50
2022-08-19T12:51:31.537Z,28.80
2022-08-19T13:19:54.501Z,28.40
2022-08-19T13:23:37.620Z,28.40
2022-08-19T13:26:20.159Z,28.50
2022-08-19T14:07:44.533Z,29.70
2022-08-19T14:11:38.477Z,30.00
2022-08-19T18:49:19.159Z,28.40
2022-08-19T18:52:00.142Z,28.10
2022-08-19T18:55:02.510Z,27.90
2022-08-19T18:57:52.967Z,27.40
2022-08-19T19:00:51.379Z,26.90
2022-08-19T19:03:29.898Z,26.50
2022-08-19T19:06:11.506Z,26.30
2022-08-19T19:08:47.905Z,26.40
2022-08-19T19:11:39.473Z,26.50
2022-08-19T19:14:45.657Z,26.40
2022-08-19T19:17:45.944Z,26.20
2022-08-19T19:20:23.465Z,26.40
2022-08-19T19:23:18.204Z,26.40
2022-08-19T19:25:51.879Z,26.40
2022-08-19T19:28:30.854Z,26.50
2022-08-19T19:31:04.874Z,26.50
2022-08-19T19:33:42.724Z,26.50
2022-08-19T19:36:22.618Z,26.60
2022-08-19T19:38:56.652Z,26.70
2022-08-19T19:41:32.840Z,26.70
2022-08-19T19:47:17.693Z,26.80
2022-08-19T19:50:13.946Z,26.80
2022-08-19T19:52:47.590Z,26.60
2022-08-19T19:55:30.804Z,26.50
2022-08-19T19:58:00.016Z,26.50
2022-08-19T20:24:18.939Z,26.30
2022-08-19T20:36:30.204Z,26.30
2022-08-19T20:53:38.972Z,26.60
2022-08-19T21:11:12.433Z,26.80
2022-08-19T21:14:42.925Z,26.70
2022-08-19T22:00:37.481Z,26.10
2022-08-19T22:30:38.371Z,25.30
2022-08-19T22:33:43.365Z,25.20
2022-08-19T22:36:58.550Z,25.20
2022-08-19T22:40:42.162Z,25.30
2022-08-19T22:43:58.926Z,25.30
2022-08-19T22:51:53.320Z,25.30
2022-08-19T22:58:31.476Z,25.20
2022-08-19T23:06:01.169Z,24.90
